Time;durP1;ratioP1;P1;durP2;ratioP2;P2;SDS_P1;SDS_P2;PMS_P1;PMS_P2;Temp;Humidity;BMP_temperature;BMP_pressure;BME280_temperature;BME280_humidity;BME280_pressure;Samples;Min_cycle;Max_cycle;Signal;HPM_P1;HPM_P2
2023/12/28 00:01:24;;;;;;;37.25;21.45;;;;;;;3.88;86.31;101196.44;5049198;28;20024;-79
2023/12/28 00:03:49;;;;;;;33.78;19.98;;;;;;;3.92;87.45;101220.75;5049252;28;20032;-78
2023/12/28 00:06:15;;;;;;;35.17;20.15;;;;;;;3.78;88.12;101235.25;5043060;28;20113;-79
2023/12/28 00:08:41;;;;;;;55.88;25.52;;;;;;;3.37;92.57;101247.88;5051156;28;20517;-79
2023/12/28 00:11:07;;;;;;;33.58;19.98;;;;;;;3.71;90.25;101235.00;5048713;28;20072;-78
2023/12/28 00:13:32;;;;;;;38.58;19.00;;;;;;;3.76;89.30;101229.28;5030942;28;20371;-78
2023/12/28 00:15:58;;;;;;;36.75;20.00;;;;;;;3.59;88.48;101201.88;5048625;28;20406;-79
2023/12/28 00:18:23;;;;;;;39.20;20.98;;;;;;;3.79;90.04;101239.56;5051815;28;20025;-78
2023/12/28 00:20:49;;;;;;;36.17;20.63;;;;;;;3.81;90.24;101234.97;5048722;28;20037;-78
2023/12/28 00:23:15;;;;;;;36.25;21.35;;;;;;;3.18;91.44;101244.31;5048789;28;20166;-78
2023/12/28 00:25:40;;;;;;;33.67;17.95;;;;;;;2.79;92.87;101240.91;5048833;28;20087;-79
2023/12/28 00:28:06;;;;;;;32.22;18.42;;;;;;;2.91;93.67;101254.78;5033103;28;20045;-78
2023/12/28 00:30:32;;;;;;;37.40;19.17;;;;;;;3.45;90.41;101255.91;5048741;28;20037;-78
2023/12/28 00:32:57;;;;;;;35.45;17.55;;;;;;;3.59;90.08;101257.28;5048663;28;20021;-79
2023/12/28 00:35:23;;;;;;;33.58;19.02;;;;;;;3.75;89.76;101267.22;5048452;28;20383;-78
2023/12/28 00:37:48;;;;;;;34.22;18.10;;;;;;;3.76;89.78;101267.09;5048428;28;20029;-79
2023/12/28 00:40:14;;;;;;;34.60;19.73;;;;;;;3.71;88.73;101261.41;5051715;28;20111;-79
2023/12/28 00:42:40;;;;;;;31.33;18.25;;;;;;;3.82;88.21;101274.41;5050588;28;20024;-78
2023/12/28 00:45:07;;;;;;;34.13;19.55;;;;;;;3.79;88.73;101287.88;5052588;28;20055;-78
2023/12/28 00:47:32;;;;;;;37.88;19.75;;;;;;;3.61;87.67;101260.59;5035552;28;20493;-78
2023/12/28 00:49:58;;;;;;;32.13;20.02;;;;;;;3.76;87.50;101280.28;5049022;28;20051;-78
2023/12/28 00:52:23;;;;;;;36.13;19.60;;;;;;;3.65;88.50;101291.00;5050106;28;20040;-79
2023/12/28 00:54:48;;;;;;;39.25;19.40;;;;;;;3.46;90.43;101278.69;5061594;28;20113;-79
2023/12/28 00:57:14;;;;;;;37.58;20.23;;;;;;;3.53;90.58;101248.13;5060396;28;20025;-79
2023/12/28 00:59:39;;;;;;;37.53;19.65;;;;;;;3.66;89.22;101268.06;5045797;28;20075;-78
2023/12/28 01:02:04;;;;;;;35.42;19.30;;;;;;;3.74;87.74;101276.09;5064603;28;20017;-79
2023/12/28 01:04:30;;;;;;;29.83;17.92;;;;;;;3.66;88.92;101273.34;5045586;28;20037;-78
2023/12/28 01:06:55;;;;;;;29.52;18.15;;;;;;;3.51;88.93;101268.53;5063706;28;20049;-78
2023/12/28 01:09:21;;;;;;;29.45;18.05;;;;;;;3.51;87.38;101268.53;5047129;28;20035;-77
2023/12/28 01:11:46;;;;;;;30.92;17.10;;;;;;;3.70;88.06;101291.41;5063346;28;20033;-79
2023/12/28 01:14:12;;;;;;;27.88;17.00;;;;;;;3.51;90.58;101271.16;5061208;28;20387;-78
2023/12/28 01:16:39;;;;;;;29.88;16.77;;;;;;;3.40;92.12;101288.00;5059766;28;20032;-79
2023/12/28 01:19:05;;;;;;;27.15;16.60;;;;;;;3.42;91.06;101287.84;5045029;28;20467;-79
2023/12/28 01:21:30;;;;;;;28.25;16.33;;;;;;;3.13;91.10;101272.91;5059477;28;20029;-77
2023/12/28 01:23:56;;;;;;;28.83;16.58;;;;;;;3.29;91.47;101292.59;5057731;28;20052;-77
2023/12/28 01:26:21;;;;;;;25.48;15.27;;;;;;;3.36;89.52;101283.16;5055197;28;20029;-77
2023/12/28 01:28:46;;;;;;;25.85;15.40;;;;;;;3.28;89.91;101290.94;5053533;28;20037;-78
2023/12/28 01:31:12;;;;;;;27.77;15.18;;;;;;;2.72;90.14;101245.91;5048796;28;20108;-78
2023/12/28 01:33:38;;;;;;;22.90;14.30;;;;;;;2.54;92.38;101271.25;5047040;28;20445;-78
2023/12/28 01:36:17;;;;;;;29.00;15.45;;;;;;;2.17;91.93;101290.31;5029653;28;20033;-78
2023/12/28 01:38:43;;;;;;;30.90;16.38;;;;;;;2.28;91.19;101292.81;5047471;28;20120;-77
2023/12/28 01:41:09;;;;;;;27.77;16.75;;;;;;;1.40;91.19;101229.34;5037832;28;20105;-78
2023/12/28 01:43:34;;;;;;;27.63;16.10;;;;;;;1.64;90.31;101287.88;5027466;28;20040;-78
2023/12/28 01:46:00;;;;;;;40.22;17.88;;;;;;;2.02;89.10;101292.44;5009641;28;20028;-78
2023/12/28 01:48:25;;;;;;;37.58;19.45;;;;;;;2.22;88.68;101277.56;5041800;28;20028;-78
2023/12/28 01:50:51;;;;;;;32.15;17.17;;;;;;;1.86;90.48;101277.16;5047113;28;20029;-78
2023/12/28 01:53:18;;;;;;;28.40;17.83;;;;;;;2.01;89.45;101265.31;5029256;28;20035;-78
2023/12/28 01:55:43;;;;;;;30.05;18.02;;;;;;;2.22;89.21;101277.56;5047410;28;20103;-79
2023/12/28 01:58:09;;;;;;;29.02;17.75;;;;;;;2.37;89.24;101270.94;5032011;28;20110;-80
2023/12/28 02:00:37;;;;;;;28.95;16.88;;;;;;;2.61;87.87;101256.56;5047024;28;20044;-77
2023/12/28 02:03:03;;;;;;;;;;;;;;;2.66;87.26;101285.97;5022958;28;20067;-78
2023/12/28 02:05:28;;;;;;;30.08;15.20;;;;;;;2.04;89.93;101252.84;5009087;28;20470;-78
2023/12/28 02:07:54;;;;;;;26.42;15.20;;;;;;;1.87;92.33;101255.16;5036213;28;20021;-78
2023/12/28 02:10:19;;;;;;;25.60;14.70;;;;;;;2.26;91.24;101307.06;5029016;28;20466;-78
2023/12/28 02:12:44;;;;;;;24.75;12.98;;;;;;;1.83;93.92;101287.94;5047408;28;20025;-79
2023/12/28 02:15:12;;;;;;;24.73;14.15;;;;;;;1.83;93.47;101273.97;5047370;28;20040;-78
2023/12/28 02:17:47;;;;;;;23.63;14.57;;;;;;;2.18;91.68;101297.22;5031173;28;20060;-78
2023/12/28 02:20:14;;;;;;;22.73;13.00;;;;;;;2.28;91.58;101313.03;5030844;28;20777;-79
2023/12/28 02:22:40;;;;;;;21.13;13.47;;;;;;;2.44;90.86;101305.47;5050999;28;20498;-78
2023/12/28 02:25:12;;;;;;;23.70;14.23;;;;;;;2.27;91.09;101314.84;5051383;28;20037;-78
2023/12/28 02:27:41;;;;;;;26.77;15.70;;;;;;;2.03;92.92;101303.81;5053076;28;20046;-78
2023/12/28 02:30:07;;;;;;;;;;;;;;;1.90;95.13;101299.63;5051037;28;20060;-78
2023/12/28 02:32:36;;;;;;;23.80;13.98;;;;;;;1.94;95.25;101279.97;5032673;28;19905;-78
2023/12/28 02:35:13;;;;;;;26.00;15.15;;;;;;;1.85;94.75;101286.00;5050840;28;20047;-78
2023/12/28 02:37:39;;;;;;;24.98;14.38;;;;;;;1.92;97.52;101295.06;5052974;28;20051;-79
2023/12/28 02:40:08;;;;;;;25.42;13.52;;;;;;;1.91;98.59;101274.97;5032844;28;20029;-78
2023/12/28 02:42:34;;;;;;;24.48;14.55;;;;;;;1.33;100.00;101275.50;5050490;28;20057;-78
2023/12/28 02:45:00;;;;;;;30.05;17.83;;;;;;;1.57;100.00;101300.69;5050728;28;20083;-78
2023/12/28 02:47:25;;;;;;;29.30;17.67;;;;;;;1.26;100.00;101281.41;5051042;28;20025;-79
2023/12/28 02:49:50;;;;;;;27.98;16.80;;;;;;;1.50;100.00;101296.91;5052059;28;20107;-78
2023/12/28 02:52:16;;;;;;;28.40;16.77;;;;;;;1.33;100.00;101277.31;5050437;28;20394;-78
2023/12/28 02:54:41;;;;;;;24.52;15.10;;;;;;;1.60;100.00;101277.59;5032071;28;20029;-78
2023/12/28 02:57:07;;;;;;;30.52;21.33;;;;;;;1.45;100.00;101313.09;5062967;28;20067;-78
2023/12/28 02:59:32;;;;;;;30.35;18.75;;;;;;;2.00;100.00;101316.28;5031796;28;20120;-78
2023/12/28 03:01:57;;;;;;;22.60;13.85;;;;;;;2.08;100.00;101309.50;5050137;28;20502;-78
2023/12/28 03:04:23;;;;;;;19.75;13.90;;;;;;;2.05;99.82;101299.25;5031966;28;20118;-77
2023/12/28 03:06:48;;;;;;;24.70;14.57;;;;;;;1.95;96.55;101318.47;5050274;28;20517;-79
2023/12/28 03:09:13;;;;;;;24.20;13.55;;;;;;;2.10;96.06;101307.56;5034542;28;20136;-79
2023/12/28 03:11:39;;;;;;;19.85;12.50;;;;;;;2.28;93.74;101287.53;5050078;28;20729;-79
2023/12/28 03:14:04;;;;;;;20.98;12.77;;;;;;;2.24;94.33;101307.19;5049569;28;20057;-79
2023/12/28 03:16:30;;;;;;;22.83;11.82;;;;;;;1.58;94.79;101274.25;5049861;28;20441;-78
2023/12/28 03:18:55;;;;;;;21.33;11.70;;;;;;;1.96;95.94;101314.03;5052238;28;20029;-77
2023/12/28 03:21:20;;;;;;;22.92;12.48;;;;;;;1.74;95.34;101320.31;5049000;28;20123;-79
2023/12/28 03:23:46;;;;;;;22.85;13.30;;;;;;;0.96;99.01;101328.47;5031938;28;20025;-78
2023/12/28 03:26:11;;;;;;;20.17;11.70;;;;;;;0.92;99.40;101327.06;5031879;28;20032;-78
2023/12/28 03:28:36;;;;;;;22.30;13.82;;;;;;;0.52;100.00;101316.31;5034046;28;20067;-78
2023/12/28 03:31:03;;;;;;;25.20;13.57;;;;;;;0.43;100.00;101325.75;5030548;28;20120;-79
2023/12/28 03:33:28;;;;;;;21.00;12.60;;;;;;;0.26;100.00;101308.72;5049676;28;20143;-79
2023/12/28 03:35:54;;;;;;;23.65;14.50;;;;;;;0.24;100.00;101323.75;5031801;28;20143;-79
2023/12/28 03:38:19;;;;;;;21.88;12.95;;;;;;;0.46;99.25;101296.63;5028831;28;20054;-80
2023/12/28 03:40:47;;;;;;;19.60;12.50;;;;;;;0.58;98.15;101307.94;5047699;28;20033;-79
2023/12/28 03:43:13;;;;;;;23.83;12.23;;;;;;;0.20;99.37;101317.06;5032218;28;20029;-78
2023/12/28 03:45:38;;;;;;;24.48;13.95;;;;;;;-0.33;100.00;101272.25;5029055;28;20091;-79
2023/12/28 03:48:04;;;;;;;22.90;12.98;;;;;;;0.14;100.00;101300.03;5037541;28;20139;-78
2023/12/28 03:50:29;;;;;;;101.50;64.03;;;;;;;1.01;99.89;101317.59;5049218;28;20036;-79
2023/12/28 03:52:55;;;;;;;37.80;25.20;;;;;;;1.17;97.79;101281.22;5049169;28;20485;-79
2023/12/28 03:55:21;;;;;;;27.50;16.85;;;;;;;1.37;96.96;101286.59;5049029;28;20055;-78
2023/12/28 03:57:47;;;;;;;210.35;101.65;;;;;;;1.33;97.24;101298.34;5049211;28;20064;-79
2023/12/28 04:00:14;;;;;;;37.45;23.52;;;;;;;1.48;95.99;101306.72;5033484;28;20052;-78
2023/12/28 04:02:40;;;;;;;36.35;21.67;;;;;;;1.59;96.09;101304.88;5049065;28;20021;-79
2023/12/28 04:05:07;;;;;;;56.13;33.22;;;;;;;1.66;95.88;101301.72;5048611;28;20106;-78
2023/12/28 04:07:32;;;;;;;56.00;37.22;;;;;;;1.95;94.84;101334.25;5049073;28;20021;-79
2023/12/28 04:09:58;;;;;;;79.30;59.15;;;;;;;1.64;95.17;101308.91;5051111;28;20065;-78
2023/12/28 04:12:23;;;;;;;50.25;30.77;;;;;;;1.76;94.48;101292.09;5030982;28;20024;-78
2023/12/28 04:14:49;;;;;;;32.45;17.23;;;;;;;1.79;92.63;101292.63;5030328;28;20021;-79
2023/12/28 04:17:14;;;;;;;33.70;17.85;;;;;;;1.74;94.14;101305.34;5048791;28;20025;-78
2023/12/28 04:19:40;;;;;;;30.17;17.00;;;;;;;2.08;92.35;101327.94;5050873;28;20170;-78
2023/12/28 04:22:05;;;;;;;23.77;15.15;;;;;;;2.07;91.51;101315.75;5030433;28;20036;-79
2023/12/28 04:24:31;;;;;;;26.95;15.35;;;;;;;1.79;92.21;101287.38;5048843;28;20033;-79
2023/12/28 04:26:56;;;;;;;29.17;16.40;;;;;;;1.48;94.21;101310.19;5048293;28;20033;-78
2023/12/28 04:29:21;;;;;;;32.95;18.10;;;;;;;1.53;94.28;101309.78;5048677;28;20108;-78
2023/12/28 04:31:47;;;;;;;27.98;17.45;;;;;;;1.27;96.62;101296.19;5048331;28;20074;-78
2023/12/28 04:34:12;;;;;;;34.63;17.27;;;;;;;1.46;96.74;101316.53;5030151;28;20040;-79
2023/12/28 04:36:45;;;;;;;34.88;20.00;;;;;;;1.68;95.05;101300.63;5030182;28;20119;-79
2023/12/28 04:39:10;;;;;;;34.75;20.13;;;;;;;1.93;94.16;101314.31;5045338;28;20032;-78
2023/12/28 04:41:35;;;;;;;41.75;20.75;;;;;;;1.96;92.10;101282.44;5030415;28;20079;-79
2023/12/28 04:44:01;;;;;;;40.67;19.60;;;;;;;2.11;91.95;101322.41;5048135;28;20033;-79
2023/12/28 04:46:26;;;;;;;40.40;21.77;;;;;;;1.97;91.87;101310.44;5047958;28;20021;-78
2023/12/28 04:48:51;;;;;;;38.90;21.27;;;;;;;2.10;91.56;101318.09;5032446;28;20087;-79
2023/12/28 04:51:17;;;;;;;36.00;19.95;;;;;;;1.94;92.53;101310.69;5048194;28;20025;-78
2023/12/28 04:53:42;;;;;;;33.95;19.75;;;;;;;2.06;93.35;101338.56;5030257;28;20112;-78
2023/12/28 04:56:08;;;;;;;32.20;20.40;;;;;;;1.53;93.79;101334.31;5047539;28;20162;-78
2023/12/28 04:58:33;;;;;;;30.92;19.30;;;;;;;1.08;94.59;101310.84;5049081;28;20486;-78
2023/12/28 05:01:01;;;;;;;32.22;17.23;;;;;;;1.12;95.98;101324.59;5047368;28;20094;-78
2023/12/28 05:03:27;;;;;;;;;;;;;;;1.72;93.23;101341.47;5046005;28;20029;-78
2023/12/28 05:05:52;;;;;;;29.77;17.17;;;;;;;1.48;93.39;101315.44;5029271;28;19916;-78
2023/12/28 05:08:17;;;;;;;38.55;21.35;;;;;;;1.34;93.52;101308.69;5029517;28;20052;-78
2023/12/28 05:10:43;;;;;;;38.60;22.33;;;;;;;1.08;95.41;101324.00;5047300;28;20463;-79
2023/12/28 05:13:08;;;;;;;41.00;25.00;;;;;;;1.17;94.22;101315.38;5029571;28;20112;-78
2023/12/28 05:15:33;;;;;;;29.65;17.52;;;;;;;1.29;93.74;101312.66;5046988;28;20739;-80
2023/12/28 05:17:59;;;;;;;27.70;17.23;;;;;;;1.01;93.83;101296.56;5047435;28;20099;-79
2023/12/28 05:20:24;;;;;;;27.35;15.90;;;;;;;0.53;97.86;101323.22;5048458;28;20036;-78
2023/12/28 05:22:50;;;;;;;28.10;15.18;;;;;;;-0.09;96.18;101301.81;5046926;28;20025;-79
2023/12/28 05:25:15;;;;;;;45.97;23.27;;;;;;;0.21;94.60;101329.25;5047511;28;20071;-78
2023/12/28 05:27:42;;;;;;;85.45;40.35;;;;;;;0.93;92.63;101327.91;5047714;28;20025;-78
2023/12/28 05:30:08;;;;;;;39.22;21.17;;;;;;;0.97;93.17;101326.69;5059551;28;20020;-78
2023/12/28 05:32:34;;;;;;;31.88;18.63;;;;;;;1.05;93.30;101313.75;5066955;28;20032;-79
2023/12/28 05:35:00;;;;;;;26.15;16.48;;;;;;;0.40;96.96;101318.94;5067483;28;20108;-78
2023/12/28 05:37:25;;;;;;;24.65;15.63;;;;;;;0.24;100.00;101342.09;5049339;28;20112;-78
2023/12/28 05:39:51;;;;;;;28.13;15.65;;;;;;;0.57;97.77;101335.13;5052091;28;20060;-78
2023/12/28 05:42:17;;;;;;;29.00;15.65;;;;;;;0.68;97.02;101336.94;5046976;28;20571;-79
2023/12/28 05:44:42;;;;;;;32.78;19.00;;;;;;;0.55;96.70;101331.81;5029140;28;20124;-79
2023/12/28 05:47:07;;;;;;;24.95;16.63;;;;;;;0.95;95.56;101325.97;5047315;28;21261;-78
2023/12/28 05:49:33;;;;;;;31.13;19.40;;;;;;;0.93;95.41;101330.53;5046823;28;20497;-78
2023/12/28 05:51:58;;;;;;;38.63;22.60;;;;;;;0.96;95.50;101325.00;5047343;28;20037;-79
2023/12/28 05:54:24;;;;;;;35.10;18.33;;;;;;;0.57;96.46;101314.13;5047249;28;20037;-78
2023/12/28 05:56:49;;;;;;;32.45;20.30;;;;;;;0.58;98.59;101342.91;5051567;28;20025;-78
2023/12/28 05:59:15;;;;;;;33.53;21.27;;;;;;;0.44;99.27;101345.78;5051486;28;20037;-78
2023/12/28 06:01:44;;;;;;;33.85;20.67;;;;;;;0.13;100.00;101358.69;5033370;28;20025;-77
2023/12/28 06:04:09;;;;;;;39.30;21.38;;;;;;;0.10;100.00;101347.59;5033336;28;20021;-77
2023/12/28 06:06:36;;;;;;;31.25;17.40;;;;;;;0.18;100.00;101326.84;5051442;28;20049;-79
2023/12/28 06:09:03;;;;;;;31.98;18.55;;;;;;;0.79;98.43;101353.47;5035733;28;20048;-78
2023/12/28 06:11:28;;;;;;;28.60;17.13;;;;;;;1.01;97.37;101333.34;5050891;28;20033;-80
2023/12/28 06:13:54;;;;;;;23.58;14.00;;;;;;;1.15;99.08;101345.38;5033269;28;20118;-79
2023/12/28 06:16:19;;;;;;;22.95;13.40;;;;;;;1.35;98.89;101346.34;5033044;28;20043;-78
2023/12/28 06:18:44;;;;;;;24.38;15.48;;;;;;;1.25;97.28;101327.03;5052023;28;20136;-79
2023/12/28 06:21:10;;;;;;;23.60;14.35;;;;;;;1.58;95.86;101347.06;5052070;28;20052;-78
2023/12/28 06:23:35;;;;;;;26.33;13.60;;;;;;;1.51;96.46;101340.63;5033154;28;20119;-79
2023/12/28 06:26:05;;;;;;;21.55;12.73;;;;;;;1.68;97.32;101373.41;5032653;28;20051;-78
2023/12/28 06:28:31;;;;;;;20.20;12.88;;;;;;;1.59;96.36;101359.22;5033257;28;20040;-78
2023/12/28 06:31:00;;;;;;;34.97;26.23;;;;;;;1.75;96.48;101348.25;5053039;28;20036;-81
2023/12/28 06:33:26;;;;;;;22.52;12.95;;;;;;;1.80;96.39;101359.25;5032602;28;20109;-78
2023/12/28 06:35:53;;;;;;;22.23;12.07;;;;;;;1.99;96.19;101369.84;5050679;28;20426;-78
2023/12/28 06:38:18;;;;;;;21.65;13.52;;;;;;;1.80;96.66;101346.91;5032651;28;20082;-79
2023/12/28 06:40:43;;;;;;;22.85;13.70;;;;;;;1.98;95.75;101355.03;5053072;28;20041;-79
2023/12/28 06:43:09;;;;;;;24.75;15.05;;;;;;;1.91;96.52;101367.03;5050380;28;20056;-80
2023/12/28 06:45:34;;;;;;;22.83;13.93;;;;;;;2.11;95.97;101367.16;5032163;28;20048;-79
2023/12/28 06:47:59;;;;;;;24.45;13.63;;;;;;;2.20;96.14;101366.34;5032681;28;20112;-79
2023/12/28 06:50:25;;;;;;;28.95;21.83;;;;;;;2.61;94.28;101372.44;5052916;28;20036;-78
2023/12/28 06:52:50;;;;;;;29.83;19.80;;;;;;;2.37;95.26;101349.94;5050375;28;20032;-81
2023/12/28 06:55:16;;;;;;;26.98;12.95;;;;;;;2.77;94.34;101346.41;5032342;28;20024;-79
2023/12/28 06:57:41;;;;;;;60.28;25.67;;;;;;;2.74;95.50;101345.88;5050592;28;20021;-78
2023/12/28 07:00:07;;;;;;;27.63;16.98;;;;;;;2.55;98.19;101362.44;5034373;28;20063;-77
2023/12/28 07:02:32;;;;;;;34.97;20.60;;;;;;;2.90;95.56;101376.94;5050337;28;20108;-77
2023/12/28 07:04:58;;;;;;;52.10;32.25;;;;;;;3.13;94.06;101388.91;5050013;28;20045;-79
2023/12/28 07:07:23;;;;;;;72.53;53.42;;;;;;;3.16;93.64;101364.88;5049672;28;20021;-79
2023/12/28 07:09:49;;;;;;;65.30;44.80;;;;;;;3.43;94.50;101389.72;5052193;28;20033;-78
2023/12/28 07:12:14;;;;;;;47.65;29.17;;;;;;;3.33;95.59;101399.44;5032144;28;20029;-78
2023/12/28 07:14:40;;;;;;;45.65;28.13;;;;;;;3.24;95.09;101384.47;5049752;28;20036;-79
2023/12/28 07:17:06;;;;;;;37.00;24.02;;;;;;;3.37;95.75;101400.81;5050162;28;20545;-78
2023/12/28 07:19:31;;;;;;;34.88;22.80;;;;;;;3.50;95.10;101406.66;5050153;28;20029;-78
2023/12/28 07:21:57;;;;;;;18.05;11.55;;;;;;;3.59;94.13;101382.06;5049838;28;20074;-78
2023/12/28 07:24:23;;;;;;;16.02;9.70;;;;;;;3.83;92.85;101381.63;5049953;28;20071;-78
2023/12/28 07:26:50;;;;;;;18.52;9.23;;;;;;;4.39;89.49;101408.97;5049700;28;20032;-78
2023/12/28 07:29:15;;;;;;;22.02;13.02;;;;;;;4.55;88.83;101407.50;5033425;28;20025;-78
2023/12/28 07:31:41;;;;;;;21.00;12.93;;;;;;;4.36;90.89;101403.97;5049167;28;20036;-77
2023/12/28 07:34:06;;;;;;;27.13;16.15;;;;;;;4.68;90.12;101397.44;5051269;28;20400;-78
2023/12/28 07:36:32;;;;;;;21.98;12.00;;;;;;;5.18;88.39;101417.28;5031311;28;20083;-78
2023/12/28 07:38:57;;;;;;;24.77;13.20;;;;;;;5.19;89.08;101411.84;5056342;28;20024;-78
2023/12/28 07:41:23;;;;;;;23.80;12.25;;;;;;;5.45;84.30;101400.50;5038777;28;20025;-77
2023/12/28 07:43:49;;;;;;;19.17;12.32;;;;;;;5.25;87.48;101405.16;5051077;28;20497;-78
2023/12/28 07:46:14;;;;;;;22.20;13.55;;;;;;;5.04;89.44;101400.13;5050757;28;20032;-77
2023/12/28 07:48:40;;;;;;;23.60;13.43;;;;;;;4.86;89.61;101370.19;5048951;28;20025;-79
2023/12/28 07:51:06;;;;;;;22.20;12.73;;;;;;;5.22;88.68;101387.75;5031827;28;20020;-78
2023/12/28 07:53:31;;;;;;;18.25;11.35;;;;;;;5.55;86.64;101401.25;5049194;28;20453;-78
2023/12/28 07:55:57;;;;;;;21.63;11.73;;;;;;;5.45;86.01;101389.91;5054342;28;20116;-78
2023/12/28 07:58:22;;;;;;;20.08;12.73;;;;;;;5.77;85.03;101418.47;5053658;28;20052;-79
2023/12/28 08:00:47;;;;;;;21.75;12.25;;;;;;;5.71;83.81;101412.97;5035104;28;20036;-79
2023/12/28 08:03:15;;;;;;;22.40;12.55;;;;;;;5.89;84.31;101421.69;5047983;28;20056;-78
2023/12/28 08:05:41;;;;;;;18.83;13.13;;;;;;;5.41;87.26;101393.84;5040083;28;20059;-80
2023/12/28 08:08:06;;;;;;;19.70;12.98;;;;;;;5.86;86.75;101390.22;5034656;28;20025;-78
2023/12/28 08:10:31;;;;;;;21.30;12.48;;;;;;;6.31;83.62;101428.09;5046144;28;20469;-77
2023/12/28 08:12:57;;;;;;;22.92;13.10;;;;;;;6.63;81.61;101422.13;5062804;28;20524;-78
2023/12/28 08:15:22;;;;;;;18.73;12.20;;;;;;;6.80;80.75;101407.97;5049640;28;20079;-78
2023/12/28 08:17:48;;;;;;;18.70;11.50;;;;;;;6.77;81.43;101408.28;5048150;28;20458;-78
2023/12/28 08:20:13;;;;;;;17.60;10.45;;;;;;;7.12;76.89;101416.16;5035722;28;20028;-77
2023/12/28 08:22:38;;;;;;;17.80;10.35;;;;;;;7.01;76.48;101409.34;5050565;28;20103;-77
2023/12/28 08:25:04;;;;;;;17.45;10.07;;;;;;;7.32;74.04;101414.03;5049905;28;20035;-78
2023/12/28 08:27:30;;;;;;;18.40;11.43;;;;;;;7.23;73.12;101389.28;5049899;28;20020;-78
2023/12/28 08:29:55;;;;;;;16.80;10.80;;;;;;;7.70;72.39;101415.19;5033912;28;20021;-76
2023/12/28 08:32:20;;;;;;;18.77;10.45;;;;;;;7.64;71.08;101392.81;5049707;28;20013;-78
2023/12/28 08:34:47;;;;;;;20.60;11.52;;;;;;;7.98;71.32;101407.69;5049745;28;20021;-78
2023/12/28 08:37:13;;;;;;;21.83;13.75;;;;;;;7.91;71.18;101385.47;5051847;28;20029;-78
2023/12/28 08:39:39;;;;;;;19.95;12.07;;;;;;;8.24;69.06;101407.47;5051847;28;20098;-77
2023/12/28 08:42:05;;;;;;;19.77;11.25;;;;;;;8.13;69.63;101396.38;5051357;28;20044;-79
2023/12/28 08:44:30;;;;;;;20.67;14.55;;;;;;;8.34;70.47;101401.97;5048633;28;20045;-80
2023/12/28 08:46:57;;;;;;;27.15;17.40;;;;;;;8.53;69.67;101390.13;5049804;28;20025;-79
2023/12/28 08:49:23;;;;;;;28.58;18.83;;;;;;;8.76;67.92;101400.81;5049197;28;20048;-77
2023/12/28 08:51:48;;;;;;;14.10;9.20;;;;;;;8.56;68.74;101396.91;5051781;28;20110;-79
2023/12/28 08:54:14;;;;;;;21.92;14.15;;;;;;;8.58;69.25;101381.63;5055552;28;20574;-78
2023/12/28 08:56:39;;;;;;;24.10;15.75;;;;;;;8.48;70.09;101386.31;5050948;28;20021;-78
2023/12/28 08:59:05;;;;;;;19.70;13.00;;;;;;;8.96;67.36;101384.41;5048454;28;20052;-78
2023/12/28 09:01:30;;;;;;;20.40;14.07;;;;;;;9.20;67.49;101394.09;5045915;28;20038;-78
2023/12/28 09:03:56;;;;;;;17.60;11.90;;;;;;;9.16;66.88;101369.66;5047387;28;20573;-78
2023/12/28 09:06:22;;;;;;;17.92;10.05;;;;;;;9.33;66.18;101386.31;5029007;28;20110;-78
2023/12/28 09:08:50;;;;;;;21.55;13.20;;;;;;;9.65;66.26;101373.75;5049930;28;20025;-78
2023/12/28 09:11:16;;;;;;;17.80;10.57;;;;;;;9.85;62.25;101363.41;5055501;28;20045;-79
2023/12/28 09:13:42;;;;;;;17.05;10.63;;;;;;;9.37;64.91;101329.03;5047400;28;20090;-78
2023/12/28 09:16:10;;;;;;;15.27;9.70;;;;;;;9.83;62.61;101357.44;5047110;28;20032;-78
2023/12/28 09:18:39;;;;;;;12.00;7.80;;;;;;;10.09;63.65;101353.47;5047074;28;20479;-78
2023/12/28 09:21:06;;;;;;;10.40;6.93;;;;;;;9.62;61.07;101324.34;5047025;28;20452;-80
2023/12/28 09:23:32;;;;;;;14.38;8.82;;;;;;;9.84;62.28;101354.56;5047186;28;20025;-77
2023/12/28 09:26:00;;;;;;;11.18;6.38;;;;;;;9.83;60.80;101350.25;5047417;28;20032;-78
2023/12/28 09:28:25;;;;;;;33.83;22.17;;;;;;;10.22;61.46;101345.69;5047010;28;20025;-77
2023/12/28 09:30:50;;;;;;;14.10;7.38;;;;;;;10.01;61.65;101314.41;5049105;28;20112;-77
2023/12/28 09:33:16;;;;;;;13.05;7.50;;;;;;;10.53;60.53;101334.81;5046468;28;20048;-78
2023/12/28 09:35:41;;;;;;;17.35;10.35;;;;;;;10.72;59.79;101346.72;5046987;28;20021;-77
2023/12/28 09:38:07;;;;;;;15.88;9.80;;;;;;;11.15;57.69;101327.22;5047053;28;20024;-77
2023/12/28 09:40:33;;;;;;;11.52;7.40;;;;;;;11.36;56.26;101313.00;5049264;28;20032;-79
2023/12/28 09:43:07;;;;;;;16.23;9.13;;;;;;;11.80;55.96;101342.13;5047265;28;20056;-78
2023/12/28 09:45:33;;;;;;;13.27;7.75;;;;;;;11.56;54.58;101324.69;5048046;28;20020;-77
2023/12/28 09:47:59;;;;;;;14.95;9.48;;;;;;;11.52;55.21;101307.38;5047872;28;20029;-78
2023/12/28 09:50:26;;;;;;;16.38;10.73;;;;;;;11.69;55.20;101317.78;5051457;28;20382;-78
2023/12/28 09:52:53;;;;;;;16.02;9.63;;;;;;;12.06;54.77;101301.38;5057752;28;20056;-79
2023/12/28 09:55:19;;;;;;;14.30;10.15;;;;;;;12.13;53.23;101308.59;5059592;28;20033;-77
2023/12/28 09:57:46;;;;;;;13.57;8.98;;;;;;;11.89;54.39;101293.88;5047610;28;20175;-77
2023/12/28 10:00:12;;;;;;;20.02;13.68;;;;;;;12.23;54.25;101309.06;5047530;28;20028;-76
2023/12/28 10:02:40;;;;;;;12.35;7.70;;;;;;;12.25;52.70;101315.84;5053551;28;20057;-78
2023/12/28 10:05:07;;;;;;;57.30;29.13;;;;;;;12.28;53.34;101303.97;5047638;28;20045;-78
2023/12/28 10:07:41;;;;;;;16.30;9.80;;;;;;;12.21;54.77;101295.06;5055569;28;21176;-77
2023/12/28 10:10:07;;;;;;;12.18;8.40;;;;;;;12.49;52.51;101280.78;5026569;28;20029;-79
2023/12/28 10:12:33;;;;;;;13.48;8.45;;;;;;;12.69;51.14;101286.16;5044271;28;20025;-77
2023/12/28 10:14:58;;;;;;;14.35;8.45;;;;;;;13.09;50.50;101270.16;5046576;28;20025;-78
2023/12/28 10:17:24;;;;;;;12.23;6.30;;;;;;;12.69;51.03;101265.59;5030080;28;20031;-78
2023/12/28 10:19:49;;;;;;;11.75;7.10;;;;;;;12.48;51.55;101226.41;5047627;28;20017;-78
2023/12/28 10:22:15;;;;;;;11.60;7.00;;;;;;;12.20;51.83;101250.66;5053057;28;20036;-79
2023/12/28 10:24:44;;;;;;;11.52;6.80;;;;;;;12.70;51.10;101251.16;5029492;28;20422;-79
2023/12/28 10:27:09;;;;;;;15.27;9.60;;;;;;;12.94;50.11;101244.41;5047543;28;20467;-78
2023/12/28 10:29:34;;;;;;;16.00;7.80;;;;;;;13.09;50.06;101254.06;5029913;28;20071;-79
2023/12/28 10:32:00;;;;;;;11.35;6.50;;;;;;;13.34;50.41;101235.53;5048278;28;20102;-79
2023/12/28 10:34:26;;;;;;;12.98;7.82;;;;;;;13.40;50.00;101226.66;5047523;28;20060;-79
2023/12/28 10:36:52;;;;;;;12.52;8.38;;;;;;;13.95;45.78;101176.16;5050275;28;20053;-78
2023/12/28 10:39:20;;;;;;;14.68;9.27;;;;;;;14.57;46.46;101229.31;5046936;28;20025;-78
2023/12/28 10:41:49;;;;;;;10.43;6.50;;;;;;;15.15;44.27;101236.28;5052070;28;20735;-78
2023/12/28 10:44:19;;;;;;;18.75;15.45;;;;;;;15.21;44.29;101238.09;5047581;28;20040;-79
2023/12/28 10:46:47;;;;;;;11.52;6.57;;;;;;;14.80;44.32;101215.31;5021288;28;20130;-79
2023/12/28 10:49:15;;;;;;;;;;;;;;;14.56;46.54;101227.66;5046839;28;20028;-79
2023/12/28 10:51:43;;;;;;;;;;;;;;;14.54;44.65;101216.28;5034506;28;20369;-78
2023/12/28 10:54:11;;;;;;;8.65;4.88;;;;;;;14.64;44.31;101219.34;5053120;28;20596;-79
2023/12/28 10:56:44;;;;;;;15.20;5.95;;;;;;;14.84;45.67;101193.16;5054403;28;20036;-78
2023/12/28 10:59:47;;;;;;;9.90;5.40;;;;;;;15.25;43.92;101204.38;5050690;28;20532;-79
2023/12/28 11:02:21;;;;;;;9.43;5.85;;;;;;;15.45;42.64;101188.03;5048914;28;20501;-80
2023/12/28 11:04:49;;;;;;;9.70;5.10;;;;;;;15.75;40.70;101163.94;5051034;28;20055;-80
2023/12/28 11:07:17;;;;;;;33.63;20.17;;;;;;;16.51;40.39;101195.78;5051480;28;20029;-80
2023/12/28 11:09:45;;;;;;;;;;;;;;;16.54;39.98;101189.94;5054044;28;20441;-80
2023/12/28 11:12:12;;;;;;;12.30;6.47;;;;;;;16.57;41.42;101184.09;5031729;28;19948;-79
2023/12/28 11:14:43;;;;;;;9.50;5.53;;;;;;;16.53;39.62;101178.38;5051444;28;20028;-79